Dubuque Regional Airport
KDBQ : now visible

Airfield :











YOU CAN JOIN US ON...

 
LOGIN :

Register | Disclaimer

   EN    FR    IT 

 









Legend :    VFR   Marginal VFR   IFR   Intensive IFR   Very Intensive IFR
Visi :
Ceiling :
>= 8 km
>= 3000ft
5 to 8 km
1000 to 3000 ft
1500m to 5 km
500 to 1000 ft
800 to 1500m
200 to 500 ft
< 800m
< 200 ft
Symbols :   Thunderstorms  Fog  Heavy snow  Heavy precipitations  Wind > 20 kt






- Airport Elevation : 1077 ft
- IATA code : DBQ


KDBQ - Dubuque Regional

CURRENT METAR :
  • 201853Z 10011KT 10SM CLR 08/02 A3011 RMK AO2 SLP204 T00780017

EXPIRED METARs :
  • 201753Z 10014G19KT 10SM FEW023 07/01 A3015 RMK AO2 SLP219 T00670011 10067 21006 58029
  • 201719Z 10012KT 10SM SCT020 06/01 A3017 RMK AO2 T00560006
  • 201653Z 09012KT 10SM OVC022 04/M01 A3020 RMK AO2 SLP237 T00441006

TAF KDBQ
Valid from the 20 at 18:00 until the 21 at 18:00 UTC


201740Z 2018/2118 10009KT P6SM OVC020
FM202200 12005KT 4SM -RA BR OVC010
FM210000 VRB05KT 1SM -DZ BR OVC003
FM210500 26011KT 3SM -DZ BR OVC005
FM210700 29011KT 6SM BR OVC015
FM211100 33005KT P6SM BKN030
KZAU FIR / North America



MET'MAP, your aeronautical weather chart ! - Copyright ORBIFLY December 2007 - Disclaimer

ORBIFLY MET'MAP TEAM :

Programming & Development : Alexandra Zaïnal
Concept & original design : Baudouin d'Aumeries
Assistance for programming : Marc-Olivier Méhu
Technical & hardware support : Manuel Goepfert

Contact : metmap@orbifly.com




SOURCES & CREDITS :

   NOAA       Earth
Advisory